sensor_id;sensor_type;location;lat;lon;timestamp;pressure;altitude;pressure_sealevel;temperature;humidity
4012;BME280;2020;48.682;9.024;2023-07-24T00:01:57;95806.28;;;19.73;59.54
4012;BME280;2020;48.682;9.024;2023-07-24T00:04:22;95815.25;;;19.72;59.64
4012;BME280;2020;48.682;9.024;2023-07-24T00:06:48;95791.59;;;19.65;59.81
4012;BME280;2020;48.682;9.024;2023-07-24T00:09:13;95783.00;;;19.46;59.94
4012;BME280;2020;48.682;9.024;2023-07-24T00:11:38;95820.50;;;19.48;62.06
4012;BME280;2020;48.682;9.024;2023-07-24T00:14:04;95830.25;;;19.36;66.93
4012;BME280;2020;48.682;9.024;2023-07-24T00:16:29;95802.88;;;19.18;67.02
4012;BME280;2020;48.682;9.024;2023-07-24T00:18:54;95795.88;;;19.00;68.47
4012;BME280;2020;48.682;9.024;2023-07-24T00:21:19;95790.47;;;19.07;70.27
4012;BME280;2020;48.682;9.024;2023-07-24T00:23:44;95788.53;;;19.02;68.40
4012;BME280;2020;48.682;9.024;2023-07-24T00:26:10;95789.44;;;19.08;71.20
4012;BME280;2020;48.682;9.024;2023-07-24T00:28:35;95782.91;;;18.98;71.31
4012;BME280;2020;48.682;9.024;2023-07-24T00:31:00;95786.72;;;18.84;72.58
4012;BME280;2020;48.682;9.024;2023-07-24T00:33:25;95785.69;;;18.85;73.50
4012;BME280;2020;48.682;9.024;2023-07-24T00:35:55;95767.44;;;18.71;74.06
4012;BME280;2020;48.682;9.024;2023-07-24T00:38:20;95781.19;;;18.74;74.31
4012;BME280;2020;48.682;9.024;2023-07-24T00:40:46;95765.03;;;18.70;75.42
4012;BME280;2020;48.682;9.024;2023-07-24T00:43:11;95770.50;;;18.68;76.18
4012;BME280;2020;48.682;9.024;2023-07-24T00:45:36;95761.91;;;18.61;77.08
4012;BME280;2020;48.682;9.024;2023-07-24T00:48:02;95772.44;;;18.61;75.27
4012;BME280;2020;48.682;9.024;2023-07-24T00:50:28;95757.53;;;18.55;75.38
4012;BME280;2020;48.682;9.024;2023-07-24T00:52:54;95766.13;;;18.62;75.24
4012;BME280;2020;48.682;9.024;2023-07-24T00:55:19;95761.91;;;18.61;75.31
4012;BME280;2020;48.682;9.024;2023-07-24T00:57:45;95757.78;;;18.65;75.74
4012;BME280;2020;48.682;9.024;2023-07-24T01:00:11;95747.44;;;18.52;76.02
4012;BME280;2020;48.682;9.024;2023-07-24T01:02:36;95754.63;;;18.45;76.61
4012;BME280;2020;48.682;9.024;2023-07-24T01:05:02;95746.72;;;18.45;76.99
4012;BME280;2020;48.682;9.024;2023-07-24T01:07:28;95739.13;;;18.36;77.43
4012;BME280;2020;48.682;9.024;2023-07-24T01:09:53;95736.97;;;18.15;78.18
4012;BME280;2020;48.682;9.024;2023-07-24T01:12:31;95739.72;;;18.20;77.47
4012;BME280;2020;48.682;9.024;2023-07-24T01:15:28;95732.84;;;18.19;76.01
4012;BME280;2020;48.682;9.024;2023-07-24T01:18:14;95731.69;;;18.15;75.67
4012;BME280;2020;48.682;9.024;2023-07-24T01:20:47;95733.75;;;18.12;74.99
4012;BME280;2020;48.682;9.024;2023-07-24T01:23:44;95728.59;;;17.99;71.45
4012;BME280;2020;48.682;9.024;2023-07-24T01:26:11;95734.19;;;18.09;71.31
4012;BME280;2020;48.682;9.024;2023-07-24T01:28:37;95732.59;;;18.08;69.95
4012;BME280;2020;48.682;9.024;2023-07-24T01:31:02;95730.78;;;17.83;69.51
4012;BME280;2020;48.682;9.024;2023-07-24T01:33:27;95724.94;;;17.81;69.97
4012;BME280;2020;48.682;9.024;2023-07-24T01:35:58;95727.44;;;17.95;69.82
4012;BME280;2020;48.682;9.024;2023-07-24T01:38:25;95726.69;;;17.88;69.54
4012;BME280;2020;48.682;9.024;2023-07-24T01:40:52;95726.84;;;17.74;69.42
4012;BME280;2020;48.682;9.024;2023-07-24T01:43:18;95730.03;;;17.76;68.13
4012;BME280;2020;48.682;9.024;2023-07-24T01:45:43;95738.41;;;17.92;67.43
4012;BME280;2020;48.682;9.024;2023-07-24T01:48:08;95728.88;;;17.72;68.19
4012;BME280;2020;48.682;9.024;2023-07-24T01:50:34;95730.19;;;17.63;68.01
4012;BME280;2020;48.682;9.024;2023-07-24T01:52:59;95724.34;;;17.61;67.94
4012;BME280;2020;48.682;9.024;2023-07-24T01:55:24;95719.34;;;17.52;67.36
4012;BME280;2020;48.682;9.024;2023-07-24T01:57:49;95711.19;;;17.61;67.61
4012;BME280;2020;48.682;9.024;2023-07-24T02:00:15;95717.75;;;17.51;68.18
4012;BME280;2020;48.682;9.024;2023-07-24T02:02:40;95718.50;;;17.59;67.23
4012;BME280;2020;48.682;9.024;2023-07-24T02:05:06;95709.88;;;17.70;66.47
4012;BME280;2020;48.682;9.024;2023-07-24T02:07:31;95705.88;;;17.67;66.01
4012;BME280;2020;48.682;9.024;2023-07-24T02:09:56;95708.25;;;17.69;66.71
4012;BME280;2020;48.682;9.024;2023-07-24T02:12:22;95702.50;;;17.79;66.40
4012;BME280;2020;48.682;9.024;2023-07-24T02:14:47;95692.31;;;17.82;66.55
4012;BME280;2020;48.682;9.024;2023-07-24T02:17:17;95686.78;;;17.72;66.39
4012;BME280;2020;48.682;9.024;2023-07-24T02:19:43;95685.59;;;17.68;66.61
4012;BME280;2020;48.682;9.024;2023-07-24T02:22:08;95695.63;;;17.78;65.95
4012;BME280;2020;48.682;9.024;2023-07-24T02:24:33;95699.56;;;17.87;65.31
4012;BME280;2020;48.682;9.024;2023-07-24T02:27:00;95707.84;;;17.91;65.61
4012;BME280;2020;48.682;9.024;2023-07-24T02:29:26;95698.03;;;17.79;67.13
4012;BME280;2020;48.682;9.024;2023-07-24T02:31:53;95698.59;;;17.81;65.99
4012;BME280;2020;48.682;9.024;2023-07-24T02:34:18;95693.78;;;17.78;65.85
4012;BME280;2020;48.682;9.024;2023-07-24T02:36:43;95676.69;;;17.69;66.18
4012;BME280;2020;48.682;9.024;2023-07-24T02:39:09;95682.53;;;17.71;67.32
4012;BME280;2020;48.682;9.024;2023-07-24T02:41:34;95681.81;;;17.64;66.95
4012;BME280;2020;48.682;9.024;2023-07-24T02:43:59;95674.56;;;17.41;68.34
4012;BME280;2020;48.682;9.024;2023-07-24T02:46:24;95677.56;;;17.44;69.43
4012;BME280;2020;48.682;9.024;2023-07-24T02:48:51;95674.00;;;17.38;69.15
4012;BME280;2020;48.682;9.024;2023-07-24T02:51:16;95666.84;;;17.46;68.66
4012;BME280;2020;48.682;9.024;2023-07-24T02:53:41;95670.41;;;17.51;68.25
4012;BME280;2020;48.682;9.024;2023-07-24T02:56:07;95662.38;;;17.46;68.79
4012;BME280;2020;48.682;9.024;2023-07-24T02:58:32;95649.88;;;17.42;68.90
4012;BME280;2020;48.682;9.024;2023-07-24T03:01:07;95653.53;;;17.41;68.86
4012;BME280;2020;48.682;9.024;2023-07-24T03:03:33;95650.19;;;17.52;68.52
4012;BME280;2020;48.682;9.024;2023-07-24T03:05:59;95658.38;;;17.44;69.44
4012;BME280;2020;48.682;9.024;2023-07-24T03:08:25;95649.50;;;17.38;68.74
4012;BME280;2020;48.682;9.024;2023-07-24T03:10:50;95654.75;;;17.38;69.64
4012;BME280;2020;48.682;9.024;2023-07-24T03:13:15;95649.22;;;17.28;69.63
4012;BME280;2020;48.682;9.024;2023-07-24T03:15:40;95646.13;;;17.12;69.05
4012;BME280;2020;48.682;9.024;2023-07-24T03:18:06;95648.91;;;17.17;68.90
4012;BME280;2020;48.682;9.024;2023-07-24T03:20:31;95649.09;;;17.16;68.87
4012;BME280;2020;48.682;9.024;2023-07-24T03:22:56;95645.53;;;17.10;68.97
4012;BME280;2020;48.682;9.024;2023-07-24T03:25:22;95639.38;;;16.98;70.12
4012;BME280;2020;48.682;9.024;2023-07-24T03:27:47;95645.03;;;16.94;69.28
4012;BME280;2020;48.682;9.024;2023-07-24T03:30:12;95635.31;;;16.95;69.25
4012;BME280;2020;48.682;9.024;2023-07-24T03:32:38;95629.84;;;16.96;69.32
4012;BME280;2020;48.682;9.024;2023-07-24T03:35:05;95633.25;;;17.04;69.58
4012;BME280;2020;48.682;9.024;2023-07-24T03:37:31;95637.34;;;17.00;68.42
4012;BME280;2020;48.682;9.024;2023-07-24T03:39:56;95649.78;;;17.11;69.01
4012;BME280;2020;48.682;9.024;2023-07-24T03:42:29;95644.94;;;17.08;69.12
4012;BME280;2020;48.682;9.024;2023-07-24T03:44:55;95643.69;;;16.85;69.55
4012;BME280;2020;48.682;9.024;2023-07-24T03:47:20;95655.22;;;16.84;69.70
4012;BME280;2020;48.682;9.024;2023-07-24T03:49:46;95658.75;;;16.96;70.24
4012;BME280;2020;48.682;9.024;2023-07-24T03:52:11;95651.16;;;16.88;70.49
4012;BME280;2020;48.682;9.024;2023-07-24T03:54:37;95646.34;;;16.85;70.76
4012;BME280;2020;48.682;9.024;2023-07-24T03:57:02;95644.88;;;16.89;71.24
4012;BME280;2020;48.682;9.024;2023-07-24T03:59:27;95647.13;;;16.86;70.92
4012;BME280;2020;48.682;9.024;2023-07-24T04:01:53;95645.09;;;16.88;71.19
4012;BME280;2020;48.682;9.024;2023-07-24T04:04:18;95657.53;;;16.99;70.97
4012;BME280;2020;48.682;9.024;2023-07-24T04:06:45;95650.72;;;16.91;71.25
4012;BME280;2020;48.682;9.024;2023-07-24T04:09:10;95642.84;;;16.91;71.63
4012;BME280;2020;48.682;9.024;2023-07-24T04:11:39;95636.75;;;16.98;71.60
4012;BME280;2020;48.682;9.024;2023-07-24T04:14:04;95629.84;;;16.96;71.55
4012;BME280;2020;48.682;9.024;2023-07-24T04:16:30;95627.19;;;17.03;71.73
4012;BME280;2020;48.682;9.024;2023-07-24T04:18:55;95629.59;;;17.05;71.33
4012;BME280;2020;48.682;9.024;2023-07-24T04:21:20;95618.28;;;17.04;71.40
4012;BME280;2020;48.682;9.024;2023-07-24T04:23:45;95613.44;;;17.01;71.27
4012;BME280;2020;48.682;9.024;2023-07-24T04:26:11;95608.56;;;17.05;71.77
4012;BME280;2020;48.682;9.024;2023-07-24T04:28:36;95597.63;;;17.08;71.52
4012;BME280;2020;48.682;9.024;2023-07-24T04:31:01;95591.94;;;17.11;72.20
4012;BME280;2020;48.682;9.024;2023-07-24T04:33:26;95592.28;;;17.15;72.28
4012;BME280;2020;48.682;9.024;2023-07-24T04:35:53;95588.19;;;17.19;71.60
4012;BME280;2020;48.682;9.024;2023-07-24T04:38:19;95593.09;;;17.15;72.73
4012;BME280;2020;48.682;9.024;2023-07-24T04:40:44;95594.72;;;17.16;72.04
4012;BME280;2020;48.682;9.024;2023-07-24T04:43:10;95598.41;;;17.08;71.98
4012;BME280;2020;48.682;9.024;2023-07-24T04:45:35;95604.84;;;17.13;72.01
4012;BME280;2020;48.682;9.024;2023-07-24T04:48:00;95595.16;;;17.13;72.74
4012;BME280;2020;48.682;9.024;2023-07-24T04:50:26;95598.38;;;17.15;72.70
4012;BME280;2020;48.682;9.024;2023-07-24T04:52:51;95598.72;;;17.19;72.08
4012;BME280;2020;48.682;9.024;2023-07-24T04:55:17;95595.50;;;17.17;72.55
4012;BME280;2020;48.682;9.024;2023-07-24T04:57:42;95600.31;;;17.20;72.06
4012;BME280;2020;48.682;9.024;2023-07-24T05:00:08;95598.50;;;17.20;72.57
4012;BME280;2020;48.682;9.024;2023-07-24T05:02:33;95591.66;;;17.19;72.89
4012;BME280;2020;48.682;9.024;2023-07-24T05:04:58;95592.22;;;17.21;72.52
4012;BME280;2020;48.682;9.024;2023-07-24T05:07:24;95589.75;;;17.27;72.96
4012;BME280;2020;48.682;9.024;2023-07-24T05:09:49;95590.91;;;17.31;73.47
4012;BME280;2020;48.682;9.024;2023-07-24T05:12:15;95595.25;;;17.25;73.85
4012;BME280;2020;48.682;9.024;2023-07-24T05:14:40;95599.09;;;17.22;74.82
4012;BME280;2020;48.682;9.024;2023-07-24T05:17:06;95608.75;;;17.29;74.40
4012;BME280;2020;48.682;9.024;2023-07-24T05:19:31;95616.34;;;17.37;74.07
4012;BME280;2020;48.682;9.024;2023-07-24T05:21:56;95616.34;;;17.37;74.76
4012;BME280;2020;48.682;9.024;2023-07-24T05:24:21;95620.38;;;17.39;74.52
4012;BME280;2020;48.682;9.024;2023-07-24T05:26:46;95623.34;;;17.24;75.55
4012;BME280;2020;48.682;9.024;2023-07-24T05:29:12;95626.13;;;17.30;75.80
4012;BME280;2020;48.682;9.024;2023-07-24T05:31:37;95628.75;;;17.30;75.62
4012;BME280;2020;48.682;9.024;2023-07-24T05:34:02;95638.69;;;17.28;76.02
4012;BME280;2020;48.682;9.024;2023-07-24T05:36:29;95648.78;;;17.31;75.95
4012;BME280;2020;48.682;9.024;2023-07-24T05:38:54;95646.00;;;17.25;77.11
4012;BME280;2020;48.682;9.024;2023-07-24T05:41:19;95639.06;;;17.31;76.80
4012;BME280;2020;48.682;9.024;2023-07-24T05:43:44;95640.69;;;17.32;76.66
4012;BME280;2020;48.682;9.024;2023-07-24T05:46:10;95646.22;;;17.43;75.46
4012;BME280;2020;48.682;9.024;2023-07-24T05:48:35;95660.13;;;17.50;74.24
4012;BME280;2020;48.682;9.024;2023-07-24T05:51:00;95658.06;;;17.52;74.72
4012;BME280;2020;48.682;9.024;2023-07-24T05:53:26;95661.00;;;17.62;74.21
4012;BME280;2020;48.682;9.024;2023-07-24T05:55:59;95660.59;;;17.59;74.52
4012;BME280;2020;48.682;9.024;2023-07-24T05:58:25;95661.06;;;17.56;73.71
4012;BME280;2020;48.682;9.024;2023-07-24T06:00:50;95656.66;;;17.49;72.68
4012;BME280;2020;48.682;9.024;2023-07-24T06:03:15;95664.69;;;17.54;73.33
4012;BME280;2020;48.682;9.024;2023-07-24T06:05:40;95667.47;;;17.60;72.99
4012;BME280;2020;48.682;9.024;2023-07-24T06:08:06;95670.69;;;17.62;72.91
4012;BME280;2020;48.682;9.024;2023-07-24T06:10:33;95672.31;;;17.63;72.91
4012;BME280;2020;48.682;9.024;2023-07-24T06:12:58;95658.84;;;17.71;72.85
4012;BME280;2020;48.682;9.024;2023-07-24T06:15:24;95646.84;;;17.75;73.15
4012;BME280;2020;48.682;9.024;2023-07-24T06:17:49;95653.88;;;17.81;72.18
4012;BME280;2020;48.682;9.024;2023-07-24T06:20:14;95651.53;;;17.73;71.05
4012;BME280;2020;48.682;9.024;2023-07-24T06:22:39;95656.22;;;17.71;69.68
4012;BME280;2020;48.682;9.024;2023-07-24T06:25:05;95646.72;;;17.70;69.22
4012;BME280;2020;48.682;9.024;2023-07-24T06:27:30;95638.63;;;17.72;69.52
4012;BME280;2020;48.682;9.024;2023-07-24T06:29:55;95625.81;;;17.75;69.40
4012;BME280;2020;48.682;9.024;2023-07-24T06:32:21;95627.09;;;17.84;69.27
4012;BME280;2020;48.682;9.024;2023-07-24T06:34:46;95622.78;;;17.90;69.67
4012;BME280;2020;48.682;9.024;2023-07-24T06:37:11;95626.38;;;17.96;68.90
4012;BME280;2020;48.682;9.024;2023-07-24T06:39:36;95614.41;;;18.00;69.36
4012;BME280;2020;48.682;9.024;2023-07-24T06:42:02;95604.16;;;18.10;68.96
4012;BME280;2020;48.682;9.024;2023-07-24T06:44:27;95599.72;;;18.23;69.14
4012;BME280;2020;48.682;9.024;2023-07-24T06:46:52;95603.06;;;18.30;68.12
4012;BME280;2020;48.682;9.024;2023-07-24T06:49:18;95607.75;;;18.40;68.50
4012;BME280;2020;48.682;9.024;2023-07-24T06:51:43;95612.81;;;18.41;67.78
4012;BME280;2020;48.682;9.024;2023-07-24T06:54:08;95598.72;;;18.48;67.50
4012;BME280;2020;48.682;9.024;2023-07-24T06:56:33;95589.81;;;18.49;67.18
4012;BME280;2020;48.682;9.024;2023-07-24T06:58:59;95596.22;;;18.53;67.43
4012;BME280;2020;48.682;9.024;2023-07-24T07:01:24;95586.38;;;18.60;67.45
4012;BME280;2020;48.682;9.024;2023-07-24T07:03:49;95590.72;;;18.66;68.11
4012;BME280;2020;48.682;9.024;2023-07-24T07:06:15;95589.72;;;18.79;67.06
4012;BME280;2020;48.682;9.024;2023-07-24T07:08:40;95591.53;;;18.79;67.12
4012;BME280;2020;48.682;9.024;2023-07-24T07:11:05;95598.06;;;18.88;67.63
4012;BME280;2020;48.682;9.024;2023-07-24T07:13:31;95616.06;;;18.91;67.69
4012;BME280;2020;48.682;9.024;2023-07-24T07:15:56;95623.75;;;18.93;68.06
4012;BME280;2020;48.682;9.024;2023-07-24T07:18:21;95629.38;;;18.96;67.72
4012;BME280;2020;48.682;9.024;2023-07-24T07:20:51;95638.91;;;18.97;67.95
4012;BME280;2020;48.682;9.024;2023-07-24T07:23:17;95652.66;;;18.99;67.52
4012;BME280;2020;48.682;9.024;2023-07-24T07:25:43;95656.75;;;18.95;67.99
4012;BME280;2020;48.682;9.024;2023-07-24T07:28:10;95661.59;;;18.98;68.04
4012;BME280;2020;48.682;9.024;2023-07-24T07:30:36;95656.56;;;19.09;67.76
4012;BME280;2020;48.682;9.024;2023-07-24T07:33:01;95648.31;;;19.17;67.57
4012;BME280;2020;48.682;9.024;2023-07-24T07:35:26;95656.78;;;19.19;67.45
4012;BME280;2020;48.682;9.024;2023-07-24T07:37:52;95654.97;;;19.32;67.54
4012;BME280;2020;48.682;9.024;2023-07-24T07:40:17;95668.75;;;19.34;66.86
4012;BME280;2020;48.682;9.024;2023-07-24T07:42:42;95669.44;;;19.41;66.79
4012;BME280;2020;48.682;9.024;2023-07-24T07:45:10;95677.44;;;19.46;66.58
4012;BME280;2020;48.682;9.024;2023-07-24T07:47:35;95684.91;;;19.49;66.82
4012;BME280;2020;48.682;9.024;2023-07-24T07:50:00;95679.63;;;19.49;66.83
4012;BME280;2020;48.682;9.024;2023-07-24T07:52:25;95681.22;;;19.50;66.99
4012;BME280;2020;48.682;9.024;2023-07-24T07:54:51;95691.22;;;19.48;67.74
4012;BME280;2020;48.682;9.024;2023-07-24T07:57:16;95716.47;;;19.44;68.39
4012;BME280;2020;48.682;9.024;2023-07-24T07:59:41;95726.31;;;19.37;69.27
4012;BME280;2020;48.682;9.024;2023-07-24T08:02:07;95730.44;;;19.33;69.71
4012;BME280;2020;48.682;9.024;2023-07-24T08:04:32;95715.66;;;19.32;71.46
4012;BME280;2020;48.682;9.024;2023-07-24T08:06:57;95707.16;;;19.29;71.07
4012;BME280;2020;48.682;9.024;2023-07-24T08:09:23;95701.41;;;19.21;72.36
4012;BME280;2020;48.682;9.024;2023-07-24T08:11:49;95694.41;;;19.03;75.69
4012;BME280;2020;48.682;9.024;2023-07-24T08:14:14;95697.56;;;18.81;78.80
4012;BME280;2020;48.682;9.024;2023-07-24T08:16:40;95692.16;;;18.64;82.72
4012;BME280;2020;48.682;9.024;2023-07-24T08:19:05;95679.56;;;18.35;85.15
4012;BME280;2020;48.682;9.024;2023-07-24T08:21:30;95676.09;;;18.23;90.08
4012;BME280;2020;48.682;9.024;2023-07-24T08:23:55;95659.56;;;18.16;88.13
4012;BME280;2020;48.682;9.024;2023-07-24T08:26:22;95631.91;;;18.25;90.32
4012;BME280;2020;48.682;9.024;2023-07-24T08:28:49;95637.88;;;18.32;90.07
4012;BME280;2020;48.682;9.024;2023-07-24T08:31:14;95633.06;;;18.29;89.39
4012;BME280;2020;48.682;9.024;2023-07-24T08:33:40;95630.63;;;18.27;90.51
4012;BME280;2020;48.682;9.024;2023-07-24T08:36:07;95602.22;;;18.30;91.62
4012;BME280;2020;48.682;9.024;2023-07-24T08:38:33;95610.59;;;18.26;90.78
4012;BME280;2020;48.682;9.024;2023-07-24T08:41:06;95608.31;;;18.30;90.30
4012;BME280;2020;48.682;9.024;2023-07-24T08:43:33;95592.06;;;18.33;90.98
4012;BME280;2020;48.682;9.024;2023-07-24T08:45:59;95603.00;;;18.18;91.18
4012;BME280;2020;48.682;9.024;2023-07-24T08:48:31;95596.06;;;18.24;91.44
4012;BME280;2020;48.682;9.024;2023-07-24T08:50:57;95594.13;;;18.31;90.72
4012;BME280;2020;48.682;9.024;2023-07-24T08:53:23;95595.09;;;18.18;91.57
4012;BME280;2020;48.682;9.024;2023-07-24T08:55:52;95593.66;;;18.34;91.28
4012;BME280;2020;48.682;9.024;2023-07-24T08:58:17;95602.16;;;18.36;91.72
4012;BME280;2020;48.682;9.024;2023-07-24T09:00:42;95605.56;;;18.25;91.92
4012;BME280;2020;48.682;9.024;2023-07-24T09:03:08;95607.50;;;18.30;92.17
4012;BME280;2020;48.682;9.024;2023-07-24T09:05:33;95608.66;;;18.34;92.19
4012;BME280;2020;48.682;9.024;2023-07-24T09:07:59;95609.47;;;18.34;88.72
4012;BME280;2020;48.682;9.024;2023-07-24T09:10:25;95615.91;;;18.38;89.23
4012;BME280;2020;48.682;9.024;2023-07-24T09:12:50;95607.66;;;18.47;91.31
4012;BME280;2020;48.682;9.024;2023-07-24T09:15:16;95603.63;;;18.44;86.98
4012;BME280;2020;48.682;9.024;2023-07-24T09:17:48;95603.44;;;18.46;86.81
4012;BME280;2020;48.682;9.024;2023-07-24T09:20:14;95605.16;;;18.52;86.40
4012;BME280;2020;48.682;9.024;2023-07-24T09:22:48;95603.34;;;18.64;86.87
4012;BME280;2020;48.682;9.024;2023-07-24T09:25:13;95598.31;;;18.75;87.96
4012;BME280;2020;48.682;9.024;2023-07-24T09:27:38;95594.19;;;18.67;87.20
4012;BME280;2020;48.682;9.024;2023-07-24T09:30:12;95588.66;;;18.68;87.18
4012;BME280;2020;48.682;9.024;2023-07-24T09:32:38;95584.56;;;18.73;85.25
4012;BME280;2020;48.682;9.024;2023-07-24T09:35:04;95586.50;;;18.77;86.25
4012;BME280;2020;48.682;9.024;2023-07-24T09:37:33;95574.69;;;18.80;86.52
4012;BME280;2020;48.682;9.024;2023-07-24T09:40:05;95584.00;;;18.82;85.49
4012;BME280;2020;48.682;9.024;2023-07-24T09:42:32;95588.00;;;18.85;87.64
4012;BME280;2020;48.682;9.024;2023-07-24T09:44:58;95591.44;;;18.97;87.34
4012;BME280;2020;48.682;9.024;2023-07-24T09:47:23;95610.47;;;18.99;87.91
4012;BME280;2020;48.682;9.024;2023-07-24T09:49:50;95609.31;;;18.95;86.60
4012;BME280;2020;48.682;9.024;2023-07-24T09:52:18;95628.78;;;18.94;87.28
4012;BME280;2020;48.682;9.024;2023-07-24T09:54:55;95635.25;;;18.98;88.47
4012;BME280;2020;48.682;9.024;2023-07-24T09:57:26;95643.91;;;18.87;88.96
4012;BME280;2020;48.682;9.024;2023-07-24T09:59:52;95653.56;;;18.93;88.40
4012;BME280;2020;48.682;9.024;2023-07-24T10:02:18;95662.03;;;18.95;89.54
4012;BME280;2020;48.682;9.024;2023-07-24T10:04:44;95664.56;;;18.90;89.11
4012;BME280;2020;48.682;9.024;2023-07-24T10:07:10;95666.53;;;18.95;88.99
4012;BME280;2020;48.682;9.024;2023-07-24T10:09:35;95660.00;;;18.97;90.35
4012;BME280;2020;48.682;9.024;2023-07-24T10:12:02;95665.38;;;18.91;89.20
4012;BME280;2020;48.682;9.024;2023-07-24T10:14:28;95670.41;;;18.92;89.48
4012;BME280;2020;48.682;9.024;2023-07-24T10:16:55;95684.03;;;18.89;90.56
4012;BME280;2020;48.682;9.024;2023-07-24T10:19:21;95687.59;;;18.83;91.28
4012;BME280;2020;48.682;9.024;2023-07-24T10:21:47;95677.63;;;18.85;90.65
4012;BME280;2020;48.682;9.024;2023-07-24T10:24:13;95684.94;;;18.83;93.43
4012;BME280;2020;48.682;9.024;2023-07-24T10:26:39;95687.47;;;18.78;92.25
4012;BME280;2020;48.682;9.024;2023-07-24T10:29:04;95693.63;;;18.71;92.84
4012;BME280;2020;48.682;9.024;2023-07-24T10:31:31;95694.53;;;18.65;97.12
4012;BME280;2020;48.682;9.024;2023-07-24T10:34:04;95700.91;;;18.46;96.50
4012;BME280;2020;48.682;9.024;2023-07-24T10:36:35;95706.34;;;18.32;99.28
4012;BME280;2020;48.682;9.024;2023-07-24T10:39:02;95715.59;;;18.23;100.00
4012;BME280;2020;48.682;9.024;2023-07-24T10:41:35;95721.94;;;18.15;100.00
4012;BME280;2020;48.682;9.024;2023-07-24T10:44:00;95724.53;;;18.03;100.00
4012;BME280;2020;48.682;9.024;2023-07-24T10:46:35;95720.13;;;17.97;100.00
4012;BME280;2020;48.682;9.024;2023-07-24T10:49:01;95731.09;;;17.94;100.00
4012;BME280;2020;48.682;9.024;2023-07-24T10:51:29;95733.25;;;17.78;100.00
4012;BME280;2020;48.682;9.024;2023-07-24T10:53:54;95736.31;;;17.57;100.00
4012;BME280;2020;48.682;9.024;2023-07-24T10:56:19;95736.75;;;17.53;100.00
4012;BME280;2020;48.682;9.024;2023-07-24T10:58:45;95732.38;;;17.47;100.00
4012;BME280;2020;48.682;9.024;2023-07-24T11:01:10;95727.09;;;17.47;100.00
4012;BME280;2020;48.682;9.024;2023-07-24T11:03:36;95692.88;;;17.29;100.00
4012;BME280;2020;48.682;9.024;2023-07-24T11:06:03;95674.19;;;17.37;100.00
4012;BME280;2020;48.682;9.024;2023-07-24T11:08:29;95685.44;;;17.44;100.00
4012;BME280;2020;48.682;9.024;2023-07-24T11:10:56;95687.63;;;17.29;100.00
4012;BME280;2020;48.682;9.024;2023-07-24T11:13:24;95667.91;;;17.38;100.00
4012;BME280;2020;48.682;9.024;2023-07-24T11:15:50;95657.69;;;17.30;100.00
4012;BME280;2020;48.682;9.024;2023-07-24T11:18:17;95650.47;;;17.25;100.00
4012;BME280;2020;48.682;9.024;2023-07-24T11:23:10;95611.94;;;17.31;100.00
4012;BME280;2020;48.682;9.024;2023-07-24T11:25:35;95570.31;;;17.28;100.00
4012;BME280;2020;48.682;9.024;2023-07-24T11:28:00;95550.94;;;17.22;100.00
4012;BME280;2020;48.682;9.024;2023-07-24T11:30:27;95556.81;;;17.24;100.00
4012;BME280;2020;48.682;9.024;2023-07-24T11:32:53;95580.81;;;17.46;100.00
4012;BME280;2020;48.682;9.024;2023-07-24T11:35:19;95578.94;;;17.84;100.00
4012;BME280;2020;48.682;9.024;2023-07-24T11:37:46;95585.44;;;18.42;100.00
4012;BME280;2020;48.682;9.024;2023-07-24T11:40:11;95579.03;;;18.62;100.00
4012;BME280;2020;48.682;9.024;2023-07-24T11:42:45;95581.34;;;18.70;100.00
4012;BME280;2020;48.682;9.024;2023-07-24T11:45:11;95568.75;;;18.73;100.00
4012;BME280;2020;48.682;9.024;2023-07-24T11:50:08;95580.97;;;18.55;100.00
4012;BME280;2020;48.682;9.024;2023-07-24T11:52:44;95601.56;;;18.46;100.00
4012;BME280;2020;48.682;9.024;2023-07-24T11:55:11;95608.44;;;18.47;100.00
4012;BME280;2020;48.682;9.024;2023-07-24T11:57:37;95616.22;;;18.42;100.00
4012;BME280;2020;48.682;9.024;2023-07-24T12:00:03;95627.13;;;18.46;100.00
4012;BME280;2020;48.682;9.024;2023-07-24T12:02:29;95622.81;;;18.63;100.00
4012;BME280;2020;48.682;9.024;2023-07-24T12:04:57;95619.47;;;18.56;100.00
4012;BME280;2020;48.682;9.024;2023-07-24T12:07:30;95628.09;;;18.63;99.38
4012;BME280;2020;48.682;9.024;2023-07-24T12:09:55;95629.69;;;18.64;100.00
4012;BME280;2020;48.682;9.024;2023-07-24T12:12:20;95618.25;;;18.70;100.00
4012;BME280;2020;48.682;9.024;2023-07-24T12:14:46;95610.81;;;18.79;100.00
4012;BME280;2020;48.682;9.024;2023-07-24T12:17:11;95613.22;;;19.05;100.00
4012;BME280;2020;48.682;9.024;2023-07-24T12:19:42;95597.97;;;19.19;98.75
4012;BME280;2020;48.682;9.024;2023-07-24T12:22:07;95615.50;;;19.13;96.69
4012;BME280;2020;48.682;9.024;2023-07-24T12:24:33;95614.22;;;19.51;99.13
4012;BME280;2020;48.682;9.024;2023-07-24T12:26:58;95607.66;;;19.66;97.14
4012;BME280;2020;48.682;9.024;2023-07-24T12:29:23;95582.84;;;19.67;96.49
4012;BME280;2020;48.682;9.024;2023-07-24T12:31:48;95593.00;;;19.46;95.78
4012;BME280;2020;48.682;9.024;2023-07-24T12:34:14;95585.31;;;19.56;99.74
4012;BME280;2020;48.682;9.024;2023-07-24T12:36:39;95577.28;;;19.51;95.31
4012;BME280;2020;48.682;9.024;2023-07-24T12:39:04;95571.44;;;19.49;93.95
4012;BME280;2020;48.682;9.024;2023-07-24T12:41:29;95570.91;;;19.64;94.44
4012;BME280;2020;48.682;9.024;2023-07-24T12:43:55;95574.56;;;19.75;93.42
4012;BME280;2020;48.682;9.024;2023-07-24T12:46:20;95571.00;;;19.69;94.00
4012;BME280;2020;48.682;9.024;2023-07-24T12:48:45;95553.63;;;19.85;94.05
4012;BME280;2020;48.682;9.024;2023-07-24T12:51:10;95555.72;;;19.83;91.48
4012;BME280;2020;48.682;9.024;2023-07-24T12:53:36;95561.75;;;19.67;87.61
4012;BME280;2020;48.682;9.024;2023-07-24T12:56:01;95542.97;;;19.80;89.00
4012;BME280;2020;48.682;9.024;2023-07-24T12:58:26;95540.06;;;19.94;89.29
4012;BME280;2020;48.682;9.024;2023-07-24T13:00:51;95529.13;;;20.02;86.94
4012;BME280;2020;48.682;9.024;2023-07-24T13:03:17;95530.34;;;20.11;86.52
4012;BME280;2020;48.682;9.024;2023-07-24T13:05:42;95536.75;;;20.33;84.27
4012;BME280;2020;48.682;9.024;2023-07-24T13:08:07;95537.78;;;20.49;81.11
4012;BME280;2020;48.682;9.024;2023-07-24T13:10:32;95535.78;;;20.90;84.13
4012;BME280;2020;48.682;9.024;2023-07-24T13:12:58;95531.72;;;21.04;80.36
4012;BME280;2020;48.682;9.024;2023-07-24T13:15:23;95530.22;;;20.92;77.16
4012;BME280;2020;48.682;9.024;2023-07-24T13:17:48;95533.47;;;21.16;76.75
4012;BME280;2020;48.682;9.024;2023-07-24T13:20:14;95533.47;;;21.16;74.34